EW4725 Weather Reports


time (UTC)temp
F
wind
direction
speed
knots
gust
knots
rain 1hr
in
rain 24hr
in
rain mn
in
humidity
%
barometer
mb
20220627215215 81 283 5.2 7.0 0.00 0.00 0.00 55 1014.3
20220627214715 81 305 4.3 7.0 0.00 0.00 0.00 55 1014.3
20220627214215 81 260 7.0 9.6 0.00 0.00 0.00 52 1014.3
20220627213715 82 260 4.3 7.0 0.00 0.00 0.00 54 1014.3
20220627213215 81 283 4.3 7.0 0.00 0.00 0.00 55 1014.4
20220627212715 81 260 5.2 7.8 0.00 0.00 0.00 55 1014.5
20220627212215 82 305 7.0 8.7 0.00 0.00 0.00 53 1014.4
20220627211715 81 305 3.5 6.1 0.00 0.00 0.00 54 1014.5
20220627211215 82 305 4.3 7.0 0.00 0.00 0.00 55 1014.5
20220627210715 81 260 4.3 7.0 0.00 0.00 0.00 56 1014.5
20220627210215 81 283 5.2 7.8 0.00 0.00 0.00 55 1014.6
20220627205715 81 260 4.3 6.1 0.00 0.00 0.00 55 1014.6
20220627205215 82 305 2.6 4.3 0.00 0.00 0.00 53 1014.7
20220627204715 83 283 2.6 6.1 0.00 0.00 0.00 52 1014.7
20220627204215 84 260 3.5 5.2 0.00 0.00 0.00 51 1014.7
20220627203715 83 283 3.5 6.1 0.00 0.00 0.00 53 1014.7
20220627203215 83 283 5.2 7.8 0.00 0.00 0.00 52 1014.8
20220627202715 84 283 4.3 7.0 0.00 0.00 0.00 51 1014.9
20220627202215 85 305 4.3 5.2 0.00 0.00 0.00 51 1014.8
20220627201715 85 283 4.3 5.2 0.00 0.00 0.00 51 1014.8
20220627201215 85 283 6.1 7.8 0.00 0.00 0.00 50 1014.8
20220627200715 86 0.0 0.0 0.00 0.00 0.00 49 1014.8
20220627200215 86 0.0 2.6 0.00 0.00 0.00 50 1014.9
20220627195715 86 260 4.3 7.0 0.00 0.00 0.00 49 1014.9
20220627195215 87 283 5.2 7.8 0.00 0.00 0.00 48 1014.9
20220627194715 87 260 4.3 5.2 0.00 0.00 0.00 48 1014.9
20220627194215 86 283 2.6 4.3 0.00 0.00 0.00 50 1014.9
20220627193715 86 260 7.0 7.8 0.00 0.00 0.00 49 1015.0
20220627193217 86 283 0.9 2.6 0.00 0.00 0.00 50 1014.9
20220627192717 86 260 1.7 4.3 0.00 0.00 0.00 49 1015.0
20220627192217 86 0.0 0.9 0.00 0.00 0.00 50 1015.0
20220627191717 85 0.0 0.9 0.00 0.00 0.00 51 1015.1
20220627191217 85 0.0 0.0 0.00 0.00 0.00 51 1015.1
20220627190717 85 0.0 0.0 0.00 0.00 0.00 52 1015.2
20220627190217 85 0.0 3.5 0.00 0.00 0.00 52 1015.2
20220627185717 85 0.0 0.9 0.00 0.00 0.00 51 1015.2
20220627185217 85 283 3.5 5.2 0.00 0.00 0.00 52 1015.2
20220627184717 85 260 2.6 6.1 0.00 0.00 0.00 53 1015.2
20220627184217 85 260 5.2 6.1 0.00 0.00 0.00 51 1015.2
20220627183717 85 170 0.9 3.5 0.00 0.00 0.00 52 1015.3
20220627183217 85 0.0 0.0 0.00 0.00 0.00 52 1015.4
20220627182716 85 0.0 0.9 0.00 0.00 0.00 51 1015.4
20220627182217 85 260 1.7 3.5 0.00 0.00 0.00 51 1015.4
20220627181717 84 0.0 1.7 0.00 0.00 0.00 53 1015.4
20220627181217 83 193 2.6 3.5 0.00 0.00 0.00 53 1015.4
20220627180716 82 283 1.7 4.3 0.00 0.00 0.00 54 1015.4
20220627180217 81 305 0.9 4.3 0.00 0.00 0.00 54 1015.4
20220627175715 81 238 1.7 3.5 0.00 0.00 0.00 56 1015.4
20220627175217 81 260 2.6 3.5 0.00 0.00 0.00 57 1015.5
20220627174716 80 238 1.7 3.5 0.00 0.00 0.00 58 1015.5
20220627174217 80 283 2.6 3.5 0.00 0.00 0.00 58 1015.6
20220627173717 80 283 2.6 3.5 0.00 0.00 0.00 59 1015.6
20220627173217 79 350 0.9 1.7 0.00 0.00 0.00 61 1015.7
20220627172716 79 283 2.6 3.5 0.00 0.00 0.00 61 1015.7
20220627172216 78 238 1.7 2.6 0.00 0.00 0.00 63 1015.6
20220627171716 77 148 1.7 3.5 0.00 0.00 0.00 64 1015.7
20220627171217 77 260 1.7 3.5 0.00 0.00 0.00 65 1015.7
20220627170717 76 283 0.9 2.6 0.00 0.00 0.00 65 1015.8
20220627170216 76 0.0 2.6 0.00 0.00 0.00 66 1015.8
20220627165717 76 305 2.6 4.3 0.00 0.00 0.00 66 1015.8
20220627165216 75 328 1.7 2.6 0.00 0.00 0.00 68 1015.8
20220627164717 76 283 1.7 2.6 0.00 0.00 0.00 67 1015.8
20220627164216 76 0.0 0.9 0.00 0.00 0.00 69 1015.9
20220627163716 75 283 0.9 2.6 0.00 0.00 0.00 69 1015.9
20220627163217 75 0.0 0.9 0.00 0.00 0.00 71 1015.9
20220627162717 75 305 0.9 2.6 0.00 0.00 0.00 72 1015.9
20220627162217 74 148 0.9 1.7 0.00 0.00 0.00 72 1016.0
20220627161717 73 0.0 0.0 0.00 0.00 0.00 76 1015.9
20220627161217 72 0.0 0.0 0.00 0.00 0.00 77 1015.9
20220627160716 71 328 0.9 1.7 0.00 0.00 0.00 78 1016.0
20220627160216 71 305 0.9 1.7 0.00 0.00 0.00 78 1015.9
20220627155716 70 13 0.9 2.6 0.00 0.00 0.00 80 1016.0
20220627155217 70 350 1.7 1.7 0.00 0.00 0.00 81 1016.0
20220627154717 70 0.0 0.9 0.00 0.00 0.00 82 1016.0
20220627154216 70 305 0.9 1.7 0.00 0.00 0.00 86 1016.0
20220627153716 68 0.0 0.0 0.00 0.00 0.00 87 1015.9
20220627153217 68 0.0 0.9 0.00 0.00 0.00 87 1015.9
20220627152716 68 305 1.7 2.6 0.00 0.00 0.00 88 1015.9
20220627152217 68 260 2.6 3.5 0.00 0.00 0.00 87 1015.8
20220627151716 68 0.0 0.0 0.00 0.00 0.00 92 1015.9
20220627151216 67 0.0 0.0 0.00 0.00 0.00 92 1015.9
20220627150716 67 283 0.9 1.7 0.00 0.00 0.00 92 1016.0
20220627150216 66 0.0 0.0 0.00 0.00 0.00 93 1016.1
20220627145716 65 260 0.9 1.7 0.00 0.00 0.00 92 1016.0
20220627145216 65 0.0 0.9 0.00 0.00 0.00 93 1015.9
20220627144716 65 0.0 0.9 0.00 0.00 0.00 94 1016.1
20220627144217 64 0.0 0.0 0.00 0.00 0.00 94 1015.9
20220627143716 64 0.0 0.9 0.00 0.00 0.00 94 1015.9
20220627143216 63 0.0 0.0 0.00 0.00 0.00 94 1015.9
20220627142716 63 283 1.7 1.7 0.00 0.00 0.00 94 1015.7
20220627142216 63 283 0.9 1.7 0.00 0.00 0.00 94 1015.8
20220627141716 63 260 1.7 2.6 0.00 0.00 0.00 94 1015.7
20220627141216 62 283 1.7 2.6 0.00 0.00 0.00 94 1015.7
20220627140716 62 305 1.7 2.6 0.00 0.00 0.00 94 1015.8
20220627140216 62 260 0.9 1.7 0.00 0.00 0.00 94 1015.7
20220627135716 62 260 0.9 0.9 0.00 0.00 0.00 95 1015.7
20220627135216 62 283 1.7 2.6 0.00 0.00 0.00 95 1015.6
20220627134717 62 283 1.7 2.6 0.00 0.00 0.00 95 1015.6
20220627134216 62 283 1.7 1.7 0.00 0.00 0.00 95 1015.7
20220627133716 61 283 1.7 2.6 0.00 0.00 0.00 95 1015.6
20220627133216 61 283 0.9 0.9 0.00 0.00 0.00 95 1015.7
20220627132716 61 283 0.9 1.7 0.00 0.00 0.00 95 1015.6
20220627132216 61 260 0.9 0.9 0.00 0.00 0.00 95 1015.7
20220627131716 61 0.0 0.0 0.00 0.00 0.00 94 1015.8
20220627131216 61 260 0.9 1.7 0.00 0.00 0.00 95 1015.8
20220627130721 61 0.0 0.0 0.00 0.00 0.00 95 1015.9
20220627130216 61 0.0 0.9 0.00 0.00 0.00 95 1016.0
20220627125716 61 0.0 0.9 0.00 0.00 0.00 95 1015.8
20220627125216 60 0.0 0.0 0.00 0.00 0.00 95 1015.8
20220627124716 60 0.0 0.0 0.00 0.00 0.00 94 1015.8
20220627124216 60 0.0 0.0 0.00 0.00 0.00 94 1015.8
20220627123716 60 0.0 0.0 0.00 0.00 0.00 94 1015.7
20220627123216 60 0.0 0.0 0.00 0.00 0.00 94 1015.6
20220627122716 60 0.0 0.0 0.00 0.00 0.00 94 1015.7
20220627122216 60 0.0 0.0 0.00 0.00 0.00 94 1015.7
20220627121716 60 0.0 0.9 0.00 0.00 0.00 94 1015.7
20220627121216 60 0.0 0.0 0.00 0.00 0.00 94 1015.5
20220627120716 60 0.0 0.0 0.00 0.00 0.00 94 1015.6
20220627120216 60 0.0 0.0 0.00 0.00 0.00 94 1015.5
20220627115716 60 0.0 0.0 0.00 0.00 0.00 94 1015.6
20220627115216 61 0.0 0.0 0.00 0.00 0.00 94 1015.6
20220627114716 61 0.0 0.0 0.00 0.00 0.00 93 1015.6
20220627114216 61 0.0 0.0 0.00 0.00 0.00 93 1015.7
20220627113716 61 0.0 0.0 0.00 0.00 0.00 93 1015.6
20220627113216 61 0.0 0.9 0.00 0.00 0.00 94 1015.6
20220627112716 61 0.0 0.0 0.00 0.00 0.00 93 1015.7
20220627112216 61 0.0 0.0 0.00 0.00 0.00 93 1015.6
20220627111716 61 0.0 0.0 0.00 0.00 0.00 93 1015.6
20220627111216 61 260 0.9 0.9 0.00 0.00 0.00 93 1015.6
20220627110716 61 0.0 0.0 0.00 0.00 0.00 93 1015.7
20220627110216 61 0.0 0.0 0.00 0.00 0.00 93 1015.7
20220627105716 61 0.0 0.0 0.00 0.00 0.00 93 1015.6
20220627105216 61 0.0 0.0 0.00 0.00 0.00 93 1015.6
20220627104716 61 0.0 0.0 0.00 0.00 0.00 93 1015.6
20220627104216 61 0.0 0.0 0.00 0.00 0.00 93 1015.7
20220627103716 61 0.0 0.9 0.00 0.00 0.00 93 1015.6
20220627103216 61 0.0 0.9 0.00 0.00 0.00 93 1015.8
20220627102716 61 0.0 0.0 0.00 0.00 0.00 93 1016.0
20220627102216 61 0.0 0.0 0.00 0.00 0.00 93 1016.0
20220627101716 61 0.0 0.0 0.00 0.00 0.00 93 1016.1
20220627101216 61 0.0 0.0 0.00 0.00 0.00 93 1016.0
20220627100716 61 0.0 0.0 0.00 0.00 0.00 93 1016.0
20220627100216 61 0.0 0.0 0.00 0.00 0.00 92 1015.9
20220627095716 61 0.0 0.0 0.00 0.00 0.00 92 1015.8
20220627095216 62 0.0 0.0 0.00 0.00 0.00 92 1015.8
20220627094716 62 0.0 0.0 0.00 0.00 0.00 92 1015.8
20220627094216 62 0.0 0.0 0.00 0.00 0.00 92 1016.0
20220627093716 62 125 0.9 0.9 0.00 0.00 0.00 93 1016.1
20220627093216 62 125 0.9 1.7 0.00 0.00 0.00 93 1016.2
20220627092716 61 0.0 0.0 0.00 0.00 0.00 92 1016.0
20220627092216 62 0.0 0.0 0.00 0.00 0.00 92 1015.9
20220627091715 62 0.0 0.0 0.00 0.00 0.00 92 1015.9
20220627091216 61 0.0 0.0 0.00 0.00 0.00 92 1015.9
20220627090716 62 0.0 0.0 0.00 0.00 0.00 91 1015.9
20220627090216 62 0.0 0.0 0.00 0.00 0.00 91 1016.1
20220627085716 62 0.0 0.0 0.00 0.00 0.00 91 1016.0
20220627085216 62 0.0 0.0 0.00 0.00 0.00 91 1016.1
20220627084716 62 0.0 0.9 0.00 0.00 0.00 91 1016.0
20220627084216 62 0.0 0.9 0.00 0.00 0.00 91 1016.1
20220627083716 63 0.0 0.9 0.00 0.00 0.00 91 1016.1
20220627083215 63 0.0 0.9 0.00 0.00 0.00 91 1016.2
20220627082716 63 0.0 1.7 0.00 0.00 0.00 91 1016.2
20220627082216 63 0.0 0.0 0.00 0.00 0.00 91 1016.3
20220627081715 63 148 0.9 1.7 0.00 0.00 0.00 91 1016.3
20220627081216 63 125 1.7 2.6 0.00 0.00 0.00 91 1016.2
20220627080716 63 148 2.6 5.2 0.00 0.00 0.00 91 1016.3
20220627080215 63 148 1.7 2.6 0.00 0.00 0.00 91 1016.3
20220627075716 63 148 1.7 3.5 0.00 0.00 0.00 90 1016.3
20220627075215 63 193 1.7 2.6 0.00 0.00 0.00 90 1016.2
20220627074716 63 148 0.9 1.7 0.00 0.00 0.00 90 1016.2
20220627074216 63 148 1.7 3.5 0.00 0.00 0.00 90 1016.4
20220627073716 64 125 1.7 2.6 0.00 0.00 0.00 90 1016.4
20220627073215 64 148 0.9 2.6 0.00 0.00 0.00 89 1016.3
20220627072716 64 148 2.6 4.3 0.00 0.00 0.00 89 1016.4
20220627072216 64 148 1.7 2.6 0.00 0.00 0.00 89 1016.3
20220627071715 64 148 1.7 1.7 0.00 0.00 0.00 89 1016.3
20220627071216 64 148 1.7 2.6 0.00 0.00 0.00 89 1016.2
20220627070715 64 148 1.7 2.6 0.00 0.00 0.00 88 1016.3
20220627070215 64 125 2.6 3.5 0.00 0.00 0.00 88 1016.3
20220627065716 64 148 1.7 3.5 0.00 0.00 0.00 88 1016.3
20220627065216 64 148 3.5 5.2 0.00 0.00 0.00 88 1016.3
20220627064716 64 148 2.6 3.5 0.00 0.00 0.00 88 1016.3
20220627064216 64 125 1.7 2.6 0.00 0.00 0.00 87 1016.2
20220627063716 64 125 1.7 1.7 0.00 0.00 0.00 87 1016.2
20220627063216 64 103 2.6 3.5 0.00 0.00 0.00 87 1016.2
20220627062716 64 125 0.9 1.7 0.00 0.00 0.00 87 1016.2
20220627062216 65 148 3.5 4.3 0.00 0.00 0.00 86 1016.3
20220627061716 65 125 1.7 2.6 0.00 0.00 0.00 86 1016.3
20220627061216 65 148 2.6 4.3 0.00 0.00 0.00 85 1016.3
20220627060716 65 148 2.6 3.5 0.00 0.00 0.00 85 1016.3
20220627060216 65 125 1.7 2.6 0.00 0.00 0.00 85 1016.3
20220627055716 65 148 1.7 2.6 0.00 0.00 0.00 84 1016.2
20220627055216 66 125 3.5 4.3 0.00 0.00 0.00 84 1016.2
20220627054716 66 103 1.7 2.6 0.00 0.00 0.00 83 1016.2
20220627054216 66 125 3.5 4.3 0.00 0.00 0.00 82 1016.2
20220627053716 66 125 4.3 5.2 0.00 0.00 0.00 81 1016.3
20220627053216 67 125 2.6 5.2 0.00 0.00 0.00 81 1016.2
20220627052716 66 125 3.5 4.3 0.00 0.00 0.00 79 1016.1
20220627052216 66 0.0 0.0 0.00 0.00 0.00 77 1016.1
20220627051716 67 0.0 0.0 0.00 0.00 0.00 76 1016.0
20220627051216 67 0.0 0.9 0.00 0.00 0.00 76 1015.9
20220627050716 67 283 0.9 0.9 0.00 0.00 0.00 76 1016.0
20220627050216 67 0.0 0.9 0.00 0.00 0.00 76 1015.9
20220627045716 67 0.0 0.0 0.00 0.00 0.00 75 1015.8
20220627045216 67 0.0 0.0 0.00 0.00 0.00 75 1015.8
20220627044716 67 0.0 0.0 0.00 0.00 0.00 74 1015.8
20220627044216 67 0.0 0.9 0.00 0.00 0.00 74 1015.7
20220627043716 68 0.0 0.0 0.00 0.00 0.00 73 1015.6
20220627043216 68 0.0 0.0 0.00 0.00 0.00 73 1015.5
20220627042716 68 0.0 0.0 0.00 0.00 0.00 73 1015.4
20220627042216 68 283 1.7 1.7 0.00 0.00 0.00 73 1015.1
20220627041716 68 305 1.7 1.7 0.00 0.00 0.00 72 1015.0
20220627041216 68 305 0.9 2.6 0.00 0.00 0.00 72 1015.0
20220627040716 68 283 0.9 0.9 0.00 0.00 0.00 72 1014.9
20220627040216 69 0.0 0.9 0.00 0.00 0.00 72 1014.7
20220627035716 69 283 0.9 1.7 0.00 0.00 0.00 71 1014.7
20220627035216 69 260 1.7 2.6 0.00 0.00 0.00 71 1014.6
20220627034716 69 260 2.6 3.5 0.00 0.00 0.00 70 1014.5
20220627034215 69 283 1.7 2.6 0.00 0.00 0.00 70 1014.4
20220627033715 70 260 1.7 3.5 0.00 0.00 0.00 69 1014.4
20220627033215 70 260 1.7 2.6 0.00 0.00 0.00 68 1014.3
20220627032715 70 283 1.7 2.6 0.00 0.00 0.00 67 1014.2
20220627032216 70 283 1.7 2.6 0.00 0.00 0.00 68 1014.2
20220627031715 70 305 1.7 1.7 0.00 0.00 0.00 67 1014.2
20220627031216 71 305 1.7 3.5 0.00 0.00 0.00 67 1014.1
20220627030716 71 283 1.7 1.7 0.00 0.00 0.00 67 1014.1
20220627030216 71 283 1.7 3.5 0.00 0.00 0.00 66 1014.1
20220627025716 71 305 2.6 3.5 0.00 0.00 0.00 65 1014.0
20220627025215 71 305 3.5 4.3 0.00 0.00 0.00 65 1013.9
20220627024715 72 305 3.5 3.5 0.00 0.00 0.00 65 1013.9
20220627024216 72 305 3.5 5.2 0.00 0.00 0.00 65 1013.8
20220627023716 72 305 3.5 4.3 0.00 0.00 0.00 64 1013.8
20220627023216 72 305 1.7 4.3 0.00 0.00 0.00 66 1013.7
20220627022716 73 305 3.5 6.1 0.00 0.00 0.00 66 1013.6
20220627022215 73 283 4.3 7.0 0.00 0.00 0.00 66 1013.7
20220627021715 73 260 4.3 7.8 0.00 0.00 0.00 65 1013.6
20220627021216 73 260 5.2 8.7 0.00 0.00 0.00 65 1013.5
20220627020716 73 260 2.6 4.3 0.00 0.00 0.00 66 1013.5
20220627020215 73 283 6.1 7.8 0.00 0.00 0.00 66 1013.4
20220627015716 73 260 3.5 6.1 0.00 0.00 0.00 66 1013.4
20220627015216 74 283 6.1 7.8 0.00 0.00 0.00 65 1013.3
20220627014715 74 260 4.3 6.1 0.00 0.00 0.00 66 1013.3
20220627014216 74 305 3.5 6.1 0.00 0.00 0.00 66 1013.4
20220627013716 74 283 5.2 9.6 0.00 0.00 0.00 65 1013.4
20220627013216 75 283 5.2 7.8 0.00 0.00 0.00 64 1013.3
20220627012715 76 260 6.1 8.7 0.00 0.00 0.00 64 1013.2
20220627012216 76 260 3.5 5.2 0.00 0.00 0.00 64 1013.1
20220627011716 76 305 4.3 6.1 0.00 0.00 0.00 63 1013.1
20220627011216 76 305 5.2 7.0 0.00 0.00 0.00 62 1013.0
20220627010715 76 283 4.3 7.8 0.00 0.00 0.00 62 1013.0
20220627010216 77 283 6.1 7.0 0.00 0.00 0.00 61 1013.0
20220627005715 77 260 4.3 7.8 0.00 0.00 0.00 60 1012.9
20220627005215 77 283 4.3 6.1 0.00 0.00 0.00 60 1012.9
20220627004716 77 305 6.1 7.8 0.00 0.00 0.00 59 1012.9
20220627004216 78 305 5.2 7.8 0.00 0.00 0.00 58 1012.8
20220627003715 78 260 5.2 7.0 0.00 0.00 0.00 57 1012.8
20220627003215 78 305 4.3 6.1 0.00 0.00 0.00 57 1012.8
20220627002715 78 283 5.2 7.8 0.00 0.00 0.00 57 1012.9
20220627002216 78 260 4.3 6.1 0.00 0.00 0.00 57 1013.0
20220627001715 78 260 2.6 4.3 0.00 0.00 0.00 59 1012.9
20220627001216 77 283 6.1 8.7 0.00 0.00 0.00 59 1013.0
20220627000715 77 283 5.2 8.7 0.00 0.00 0.00 61 1013.0
20220627000215 77 260 5.2 6.1 0.00 0.00 0.00 61 1013.0
20220626235715 77 283 4.3 7.8 0.00 0.00 0.00 61 1013.0
20220626235215 77 305 4.3 7.0 0.00 0.00 0.00 61 1013.1
20220626234715 77 283 5.2 8.7 0.00 0.00 0.00 61 1013.1
20220626234215 77 283 4.3 7.0 0.00 0.00 0.00 61 1013.0
20220626233716 77 305 6.1 8.7 0.00 0.00 0.00 61 1013.0
20220626233215 77 283 6.1 9.6 0.00 0.00 0.00 60 1013.1
20220626232715 78 283 7.8 9.6 0.00 0.00 0.00 60 1013.1
20220626232215 78 260 5.2 7.0 0.00 0.00 0.00 58 1013.1
20220626231715 78 283 4.3 6.1 0.00 0.00 0.00 59 1013.1
20220626231215 78 283 6.1 9.6 0.00 0.00 0.00 59 1013.1
20220626230715 78 260 5.2 8.7 0.00 0.00 0.00 60 1013.1
20220626230215 78 305 6.1 9.6 0.00 0.00 0.00 60 1013.1
20220626225715 78 283 5.2 7.8 0.00 0.00 0.00 61 1013.1
20220626225215 78 283 7.0 9.6 0.00 0.00 0.00 59 1013.1
20220626224715 79 283 5.2 11.3 0.00 0.00 0.00 60 1013.1
20220626224215 79 260 7.0 8.7 0.00 0.00 0.00 59 1013.2
20220626223715 79 283 6.1 7.8 0.00 0.00 0.00 59 1013.2
20220626223215 79 260 6.1 8.7 0.00 0.00 0.00 58 1013.3
20220626222715 80 283 5.2 8.7 0.00 0.00 0.00 58 1013.4
20220626222215 79 260 7.0 9.6 0.00 0.00 0.00 59 1013.5
20220626221715 79 283 7.8 11.3 0.00 0.00 0.00 58 1013.5
20220626221215 80 283 5.2 8.7 0.00 0.00 0.00 57 1013.5
20220626220715 80 283 7.0 9.6 0.00 0.00 0.00 56 1013.5
20220626220215 80 283 5.2 7.0 0.00 0.00 0.00 56 1013.6
20220626215715 80 260 5.2 7.8 0.00 0.00 0.00 56 1013.6